Costa Mediterranea — IBCF — position and weather

sailwx.info

Track history (hours):
 
Tides and Currents Weather Stations Pressure Air Temp Water Temp Dewpoint Dewpoint Depression Visibility Wind Speed Wind Dir Waves Ship Positions

Costa Mediterranea

Last reported at 2017-Feb-22 16:33 UTC. Time now 2017-Feb-23 02:34 UTC.
Position N 36°20' E 013°49'.

Length 293 m; draft 8 m.

Type: Passenger vessel. MMSI: 247088200.

Date/timePositionNaut miles runAvg speedWind from/ knotsBaromVisibWave heightAir tempDewpointWater temp
2017-Feb-22 16:33N 36°20' E 013°49'1514.6
2017-Feb-22 15:33N 36°13' E 014°05'1514.8
2017-Feb-22 14:33N 36°06' E 014°21'1414.3
2017-Feb-22 13:33N 35°56' E 014°33'1 0.2
2017-Feb-22 06:33N 35°54' E 014°32'1413.8
2017-Feb-22 05:33N 36°07' E 014°25'1918.8
2017-Feb-22 04:33N 36°18' E 014°07'1919.0
2017-Feb-22 03:33N 36°30' E 013°49'2019.3
2017-Feb-22 02:32N 36°41' E 013°28'10413.0
2017-Feb-21 18:32N 38°14' E 012°29'3719.0
2017-Feb-21 16:33N 38°17' E 013°17'1110.7
2017-Feb-21 15:34N 38°08' E 013°25'2 1.8
2017-Feb-21 14:21N 38°08' E 013°22'0 0.0
2017-Feb-21 13:27N 38°08' E 013°22'0 0.0
2017-Feb-21 12:24N 38°08' E 013°22'0 0.0
2017-Feb-21 11:27N 38°08' E 013°22'0 0.0
2017-Feb-21 10:23N 38°08' E 013°22'0 0.0
2017-Feb-21 09:23N 38°08' E 013°22'0 0.0
2017-Feb-21 08:31N 38°08' E 013°22'0 0.0
2017-Feb-21 07:31N 38°08' E 013°22'2 2.5
2017-Feb-21 06:33N 38°09' E 013°24'1414.0
2017-Feb-21 05:33N 38°22' E 013°29'273 9.3
2017-Feb-20 00:09N 42°22' E 010°35'6317.6
2017-Feb-19 20:33N 43°06' E 009°34'1818.4
2017-Feb-19 19:34N 43°22' E 009°21'1818.4
2017-Feb-19 18:34N 43°38' E 009°07'1818.3
2017-Feb-19 17:34N 43°53' E 008°54'1818.0
2017-Feb-19 16:34N 44°08' E 008°40'1313.1
2017-Feb-19 15:33N 44°19' E 008°30'0 0.1
2017-Feb-19 13:18N 44°19' E 008°29'0 0.0
2017-Feb-19 12:30N 44°19' E 008°29'0 0.0
2017-Feb-19 11:18N 44°19' E 008°29'0 0.0
2017-Feb-19 10:24N 44°19' E 008°29'0 0.0
2017-Feb-19 08:24N 44°19' E 008°29'0 0.0
2017-Feb-19 07:30N 44°19' E 008°29'3 2.7
2017-Feb-19 06:33N 44°17' E 008°32'1313.3
2017-Feb-19 05:33N 44°05' E 008°24'2914.1
2017-Feb-19 03:31N 43°43' E 007°59'1314.1
2017-Feb-19 02:33N 43°33' E 007°47'1413.9
2017-Feb-19 01:33N 43°24' E 007°32'1313.6
2017-Feb-19 00:33N 43°15' E 007°18'9112.8
2017-Feb-18 17:26N 43°08' E 005°13'1212.8
2017-Feb-18 16:31N 43°19' E 005°16'3 3.3
2017-Feb-18 15:29N 43°21' E 005°20'0 0.0
2017-Feb-18 14:29N 43°21' E 005°20'0 0.0
2017-Feb-18 13:29N 43°21' E 005°20'0 0.0
2017-Feb-18 10:05N 43°21' E 005°20'0 0.0
2017-Feb-18 07:22N 43°21' E 005°20'4 4.6
2017-Feb-18 06:29N 43°19' E 005°15'2412.5
2017-Feb-18 04:34N 43°02' E 004°52'2612.8
2017-Feb-18 02:32N 42°43' E 004°28'6713.2
2017-Feb-17 21:25N 41°54' E 003°25'1517.2
2017-Feb-17 20:32N 41°44' E 003°10'2814.2
2017-Feb-17 18:33N 41°29' E 002°38'1413.9
2017-Feb-17 17:31N 41°21' E 002°22'9 0.9
2017-Feb-17 07:09N 41°17' E 002°11'813.4
2017-Feb-17 06:33N 41°13' E 002°20'1918.9
2017-Feb-17 05:33N 41°04' E 002°42'1818.2
2017-Feb-17 04:33N 40°54' E 003°03'1818.1
2017-Feb-17 03:33N 40°45' E 003°23'2118.4
2017-Feb-17 02:26N 40°35' E 003°47'25016.7
2017-Feb-16 11:25N 38°32' E 008°29'28515.1
2017-Feb-15 16:33N 36°20' E 013°48'1515.3
2017-Feb-15 15:33N 36°13' E 014°05'1515.0
2017-Feb-15 14:33N 36°06' E 014°21'1413.6
2017-Feb-15 13:33N 35°55' E 014°32'2 0.2
2017-Feb-15 06:33N 35°57' E 014°33'1717.2
2017-Feb-15 05:33N 36°10' E 014°20'2019.8
2017-Feb-15 04:33N 36°20' E 013°58'13118.2
2017-Feb-14 21:23N 37°45' E 011°54'3215.1
2017-Feb-14 19:15N 38°13' E 012°15'1419.2
2017-Feb-14 18:33N 38°14' E 012°32'3819.3
2017-Feb-14 16:33N 38°16' E 013°21'9 9.3
2017-Feb-14 15:33N 38°07' E 013°23'1 0.7
2017-Feb-14 14:15N 38°08' E 013°22'0 0.0
2017-Feb-14 13:30N 38°08' E 013°22'0 0.0
2017-Feb-14 12:30N 38°08' E 013°22'0 0.0
2017-Feb-14 11:33N 38°08' E 013°22'0 0.0
2017-Feb-14 10:26N 38°08' E 013°22'0 0.0
2017-Feb-14 09:23N 38°08' E 013°22'0 0.0
2017-Feb-14 08:24N 38°08' E 013°22'0 0.0
2017-Feb-14 07:34N 38°08' E 013°22'5 4.5
2017-Feb-14 06:34N 38°11' E 013°25'1413.9
2017-Feb-14 05:33N 38°25' E 013°30'32310.0
2017-Feb-12 21:14N 42°55' E 009°38'1217.8
2017-Feb-12 20:33N 43°07' E 009°34'1818.4
2017-Feb-12 19:33N 43°22' E 009°20'1818.2
2017-Feb-12 18:33N 43°38' E 009°07'1918.6
2017-Feb-12 17:33N 43°54' E 008°53'1919.1
2017-Feb-12 16:33N 44°10' E 008°39'  
Track history (hours):
 
Tides and Currents Weather Stations Pressure Air Temp Water Temp Dewpoint Dewpoint Depression Visibility Wind Speed Wind Dir Waves Ship Positions

Costa Mediterranea

Last reported at 2017-Feb-22 16:33 UTC. Time now 2017-Feb-23 02:34 UTC.
Position N 36°20' E 013°49'.

Length 293 m; draft 8 m.

Type: Passenger vessel. MMSI: 247088200.

Date/timePositionNaut miles runAvg speedWind from/ knotsBaromVisibWave heightAir tempDewpointWater temp
2017-Feb-22 16:33N 36°20' E 013°49'1514.6
2017-Feb-22 15:33N 36°13' E 014°05'1514.8
2017-Feb-22 14:33N 36°06' E 014°21'1414.3
2017-Feb-22 13:33N 35°56' E 014°33'1 0.2
2017-Feb-22 06:33N 35°54' E 014°32'1413.8
2017-Feb-22 05:33N 36°07' E 014°25'1918.8
2017-Feb-22 04:33N 36°18' E 014°07'1919.0
2017-Feb-22 03:33N 36°30' E 013°49'2019.3
2017-Feb-22 02:32N 36°41' E 013°28'10413.0
2017-Feb-21 18:32N 38°14' E 012°29'3719.0
2017-Feb-21 16:33N 38°17' E 013°17'1110.7
2017-Feb-21 15:34N 38°08' E 013°25'2 1.8
2017-Feb-21 14:21N 38°08' E 013°22'0 0.0
2017-Feb-21 13:27N 38°08' E 013°22'0 0.0
2017-Feb-21 12:24N 38°08' E 013°22'0 0.0
2017-Feb-21 11:27N 38°08' E 013°22'0 0.0
2017-Feb-21 10:23N 38°08' E 013°22'0 0.0
2017-Feb-21 09:23N 38°08' E 013°22'0 0.0
2017-Feb-21 08:31N 38°08' E 013°22'0 0.0
2017-Feb-21 07:31N 38°08' E 013°22'2 2.5
2017-Feb-21 06:33N 38°09' E 013°24'1414.0
2017-Feb-21 05:33N 38°22' E 013°29'273 9.3
2017-Feb-20 00:09N 42°22' E 010°35'6317.6
2017-Feb-19 20:33N 43°06' E 009°34'1818.4
2017-Feb-19 19:34N 43°22' E 009°21'1818.4
2017-Feb-19 18:34N 43°38' E 009°07'1818.3
2017-Feb-19 17:34N 43°53' E 008°54'1818.0
2017-Feb-19 16:34N 44°08' E 008°40'1313.1
2017-Feb-19 15:33N 44°19' E 008°30'0 0.1
2017-Feb-19 13:18N 44°19' E 008°29'0 0.0
2017-Feb-19 12:30N 44°19' E 008°29'0 0.0
2017-Feb-19 11:18N 44°19' E 008°29'0 0.0
2017-Feb-19 10:24N 44°19' E 008°29'0 0.0
2017-Feb-19 08:24N 44°19' E 008°29'0 0.0
2017-Feb-19 07:30N 44°19' E 008°29'3 2.7
2017-Feb-19 06:33N 44°17' E 008°32'1313.3
2017-Feb-19 05:33N 44°05' E 008°24'2914.1
2017-Feb-19 03:31N 43°43' E 007°59'1314.1
2017-Feb-19 02:33N 43°33' E 007°47'1413.9
2017-Feb-19 01:33N 43°24' E 007°32'1313.6
2017-Feb-19 00:33N 43°15' E 007°18'9112.8
2017-Feb-18 17:26N 43°08' E 005°13'1212.8
2017-Feb-18 16:31N 43°19' E 005°16'3 3.3
2017-Feb-18 15:29N 43°21' E 005°20'0 0.0
2017-Feb-18 14:29N 43°21' E 005°20'0 0.0
2017-Feb-18 13:29N 43°21' E 005°20'0 0.0
2017-Feb-18 10:05N 43°21' E 005°20'0 0.0
2017-Feb-18 07:22N 43°21' E 005°20'4 4.6
2017-Feb-18 06:29N 43°19' E 005°15'2412.5
2017-Feb-18 04:34N 43°02' E 004°52'2612.8
2017-Feb-18 02:32N 42°43' E 004°28'6713.2
2017-Feb-17 21:25N 41°54' E 003°25'1517.2
2017-Feb-17 20:32N 41°44' E 003°10'2814.2
2017-Feb-17 18:33N 41°29' E 002°38'1413.9
2017-Feb-17 17:31N 41°21' E 002°22'9 0.9
2017-Feb-17 07:09N 41°17' E 002°11'813.4
2017-Feb-17 06:33N 41°13' E 002°20'1918.9
2017-Feb-17 05:33N 41°04' E 002°42'1818.2
2017-Feb-17 04:33N 40°54' E 003°03'1818.1
2017-Feb-17 03:33N 40°45' E 003°23'2118.4
2017-Feb-17 02:26N 40°35' E 003°47'25016.7
2017-Feb-16 11:25N 38°32' E 008°29'28515.1
2017-Feb-15 16:33N 36°20' E 013°48'1515.3
2017-Feb-15 15:33N 36°13' E 014°05'1515.0
2017-Feb-15 14:33N 36°06' E 014°21'1413.6
2017-Feb-15 13:33N 35°55' E 014°32'2 0.2
2017-Feb-15 06:33N 35°57' E 014°33'1717.2
2017-Feb-15 05:33N 36°10' E 014°20'2019.8
2017-Feb-15 04:33N 36°20' E 013°58'13118.2
2017-Feb-14 21:23N 37°45' E 011°54'3215.1
2017-Feb-14 19:15N 38°13' E 012°15'1419.2
2017-Feb-14 18:33N 38°14' E 012°32'3819.3
2017-Feb-14 16:33N 38°16' E 013°21'9 9.3
2017-Feb-14 15:33N 38°07' E 013°23'1 0.7
2017-Feb-14 14:15N 38°08' E 013°22'0 0.0
2017-Feb-14 13:30N 38°08' E 013°22'0 0.0
2017-Feb-14 12:30N 38°08' E 013°22'0 0.0
2017-Feb-14 11:33N 38°08' E 013°22'0 0.0
2017-Feb-14 10:26N 38°08' E 013°22'0 0.0
2017-Feb-14 09:23N 38°08' E 013°22'0 0.0
2017-Feb-14 08:24N 38°08' E 013°22'0 0.0
2017-Feb-14 07:34N 38°08' E 013°22'5 4.5
2017-Feb-14 06:34N 38°11' E 013°25'1413.9
2017-Feb-14 05:33N 38°25' E 013°30'32310.0
2017-Feb-12 21:14N 42°55' E 009°38'1217.8
2017-Feb-12 20:33N 43°07' E 009°34'1818.4
2017-Feb-12 19:33N 43°22' E 009°20'1818.2
2017-Feb-12 18:33N 43°38' E 009°07'1918.6
2017-Feb-12 17:33N 43°54' E 008°53'1919.1
2017-Feb-12 16:33N 44°10' E 008°39'  

Dump ship's entire track history